Greenwich, New Jersey
Current Conditions -  °F | °C
As of 4:54 PM on Thursday 27 Nov 2014 (Local Time) from KMIV Reporting Station
Clear Clear  
Wind Chill: 31°   Ceiling: Unl
Heat Index: 38°   Visibility: 10mi
Dew Point: 28°   Wind: 10mph
Humidity: 68%   Direction: 310°NW
Pressure: 30.05"   Gusts: NA
Location:  39.39°N, 75.34°W
Report Text: KMIV 272154Z AUTO 31009KT 10SM CLR 03/M02 A3005 RMK AO2 SLP174 T00331022
Loading
Personal Weather Stations






























Interactive Weather Map New forecast layout! Learn more

10-Day Weather Forecast

Advertisements
Track Severe Weather on mobile